Time;durP1;ratioP1;P1;durP2;ratioP2;P2;SDS_P1;SDS_P2;PMS_P1;PMS_P2;Temp;Humidity;BMP_temperature;BMP_pressure;BME280_temperature;BME280_humidity;BME280_pressure;Samples;Min_cycle;Max_cycle;Signal;HPM_P1;HPM_P2
2023/08/29 00:01:55;;;;;;;6.43;1.70;;;;;;;-146.27;90.10;82538.88;5045607;28;20036;-68
2023/08/29 00:04:20;;;;;;;1.60;1.38;;;;;;;-146.27;90.41;82550.91;5037566;28;21355;-68
2023/08/29 00:06:45;;;;;;;3.10;1.60;;;;;;;-146.27;90.26;82530.84;5037598;28;20025;-68
2023/08/29 00:09:11;;;;;;;5.80;2.20;;;;;;;-146.27;90.45;82548.91;5042713;28;20037;-68
2023/08/29 00:11:36;;;;;;;4.63;1.85;;;;;;;-146.27;90.91;82573.00;5048365;28;20036;-67
2023/08/29 00:14:02;;;;;;;3.78;1.52;;;;;;;-146.27;91.06;82601.16;5047368;28;20390;-68
2023/08/29 00:16:27;;;;;;;4.30;1.75;;;;;;;-146.27;90.72;82585.06;5044976;28;20057;-68
2023/08/29 00:18:53;;;;;;;4.13;2.15;;;;;;;-146.27;90.45;82581.06;5038976;28;20465;-68
2023/08/29 00:21:18;;;;;;;4.85;1.80;;;;;;;-146.27;90.69;82595.13;5038557;28;20032;-68
2023/08/29 00:23:47;;;;;;;3.05;2.05;;;;;;;-146.27;90.53;82585.06;5038666;28;20021;-68
2023/08/29 00:26:12;;;;;;;3.55;2.05;;;;;;;-146.27;90.27;82573.00;5033752;28;20071;-67
2023/08/29 00:28:38;;;;;;;1.60;1.50;;;;;;;-146.27;90.34;82609.19;5037070;28;20033;-67
2023/08/29 00:31:03;;;;;;;2.22;1.80;;;;;;;-146.27;90.52;82577.03;5044197;28;20488;-68
2023/08/29 00:33:28;;;;;;;3.55;1.98;;;;;;;-146.27;90.89;82625.25;5049172;28;20108;-68
2023/08/29 00:35:54;;;;;;;3.83;1.52;;;;;;;-146.27;91.20;82629.28;5041653;28;20537;-68
2023/08/29 00:38:19;;;;;;;3.45;2.20;;;;;;;-146.27;90.99;82641.31;5040894;28;20036;-69
2023/08/29 00:40:44;;;;;;;3.42;1.83;;;;;;;-146.27;91.31;82639.31;5035365;28;20025;-68
2023/08/29 00:43:10;;;;;;;3.13;1.80;;;;;;;-146.27;90.62;82629.28;5043048;28;20131;-67
2023/08/29 00:45:37;;;;;;;5.70;1.95;;;;;;;-146.27;90.17;82639.31;5042286;28;20032;-68
2023/08/29 00:48:02;;;;;;;3.90;1.98;;;;;;;-146.27;91.04;82661.41;5045808;28;20036;-68
2023/08/29 00:50:30;;;;;;;5.70;1.90;;;;;;;-146.27;91.30;82627.25;5030772;28;20056;-68
2023/08/29 00:52:58;;;;;;;3.03;2.10;;;;;;;-146.27;91.58;82609.19;5034874;28;20036;-68
2023/08/29 00:55:26;;;;;;;2.92;2.03;;;;;;;-146.27;91.26;82631.28;5046528;28;20083;-69
2023/08/29 00:57:56;;;;;;;7.97;2.35;;;;;;;-146.27;91.17;82653.38;5049633;28;20033;-68
2023/08/29 01:00:25;;;;;;;2.72;1.95;;;;;;;-146.27;91.11;82627.25;5036795;28;20489;-68
2023/08/29 01:02:50;;;;;;;5.65;2.13;;;;;;;-146.27;91.74;82609.19;5044754;28;20109;-69
2023/08/29 01:05:16;;;;;;;7.68;2.13;;;;;;;-146.27;91.89;82625.25;5034685;28;20049;-68
2023/08/29 01:07:41;;;;;;;5.45;2.40;;;;;;;-146.27;91.91;82609.19;5042309;28;20044;-68
2023/08/29 01:10:07;;;;;;;2.40;2.03;;;;;;;-146.27;93.22;82619.22;5031948;28;20040;-68
2023/08/29 01:12:48;;;;;;;4.72;2.05;;;;;;;-146.27;92.31;82597.13;5035127;28;20180;-68
2023/08/29 01:15:21;;;;;;;2.38;2.10;;;;;;;-146.27;91.02;82601.16;5033945;28;20045;-68
2023/08/29 01:17:56;;;;;;;3.72;2.15;;;;;;;-146.27;90.15;82599.13;5035361;28;20067;-68
2023/08/29 01:20:23;;;;;;;4.72;2.22;;;;;;;-146.27;90.25;82617.22;5041815;28;20091;-68
2023/08/29 01:23:00;;;;;;;3.08;2.20;;;;;;;-146.27;90.45;82649.34;5038726;28;20130;-69
2023/08/29 01:25:42;;;;;;;4.75;2.45;;;;;;;-146.27;90.44;82625.25;5040397;28;20124;-68
2023/08/29 01:28:08;;;;;;;3.25;2.42;;;;;;;-146.27;90.40;82625.25;5034435;28;20081;-69
2023/08/29 01:30:35;;;;;;;3.97;2.10;;;;;;;-146.27;90.32;82673.47;5040713;28;20087;-69
2023/08/29 01:33:00;;;;;;;5.00;2.05;;;;;;;-146.27;90.47;82673.47;5045524;28;20024;-69
2023/08/29 01:35:26;;;;;;;7.07;2.47;;;;;;;-146.27;90.25;82701.59;5040879;28;20021;-69
2023/08/29 01:37:51;;;;;;;3.28;2.35;;;;;;;-146.27;90.48;82717.66;5041095;28;20527;-69
2023/08/29 01:40:17;;;;;;;5.13;2.67;;;;;;;-146.27;90.80;82717.66;5035130;28;20506;-69
2023/08/29 01:42:42;;;;;;;5.13;2.67;;;;;;;-146.27;91.04;82705.59;5033168;28;20021;-69
2023/08/29 01:45:08;;;;;;;7.03;3.45;;;;;;;-146.27;91.58;82689.53;5035555;28;20025;-69
2023/08/29 01:47:33;;;;;;;4.53;3.60;;;;;;;-146.27;91.35;82701.59;5041103;28;20087;-69
2023/08/29 01:50:03;;;;;;;3.67;2.70;;;;;;;-146.27;91.17;82749.81;5038741;28;20025;-69
2023/08/29 01:52:30;;;;;;;6.60;2.78;;;;;;;-146.27;91.30;82707.63;5047106;28;20124;-69
2023/08/29 01:54:56;;;;;;;3.95;2.60;;;;;;;-146.27;90.87;82733.72;5033055;28;20660;-69
2023/08/29 01:57:23;;;;;;;6.43;2.47;;;;;;;-146.27;91.37;82727.72;5040603;28;20033;-69
2023/08/29 01:59:50;;;;;;;3.92;2.40;;;;;;;-146.27;91.06;82725.69;5038164;28;20366;-69
2023/08/29 02:02:17;;;;;;;3.95;2.78;;;;;;;-146.27;91.47;82735.75;5042450;28;20071;-69
2023/08/29 02:04:42;;;;;;;7.30;2.92;;;;;;;-146.27;91.64;82721.69;5044807;28;20043;-69
2023/08/29 02:07:08;;;;;;;2.80;2.25;;;;;;;-146.27;91.69;82761.84;5044238;28;20025;-69
2023/08/29 02:09:33;;;;;;;4.07;2.85;;;;;;;-146.27;91.55;82755.84;5041449;28;20056;-69
2023/08/29 02:11:58;;;;;;;5.80;2.92;;;;;;;-146.27;91.67;82745.78;5046205;28;20037;-69
2023/08/29 02:14:24;;;;;;;8.10;2.60;;;;;;;-146.27;92.08;82785.97;5042165;28;20157;-70
2023/08/29 02:16:49;;;;;;;3.28;2.45;;;;;;;-146.27;92.08;82769.91;5046514;28;20025;-70
2023/08/29 02:19:14;;;;;;;3.25;2.47;;;;;;;-146.27;91.34;82749.81;5033797;28;20519;-68
2023/08/29 02:21:40;;;;;;;5.15;2.80;;;;;;;-146.27;92.27;82767.88;5028090;28;20029;-68
2023/08/29 02:24:05;;;;;;;8.90;3.13;;;;;;;-146.27;92.17;82763.88;5050145;28;20031;-68
2023/08/29 02:26:31;;;;;;;3.55;2.58;;;;;;;-146.27;91.90;82773.91;5039048;28;20477;-68
2023/08/29 02:28:56;;;;;;;3.60;2.60;;;;;;;-146.27;91.80;82785.97;5047154;28;20106;-68
2023/08/29 02:31:22;;;;;;;3.03;2.20;;;;;;;-146.27;91.60;82777.94;5043885;28;20028;-69
2023/08/29 02:33:47;;;;;;;3.20;2.35;;;;;;;-146.27;91.42;82789.97;5050186;28;20392;-68
2023/08/29 02:36:13;;;;;;;3.97;2.85;;;;;;;-146.27;91.89;82745.78;5039731;28;20033;-68
2023/08/29 02:38:39;;;;;;;3.90;2.72;;;;;;;-146.27;92.68;82810.06;5044293;28;20060;-68
2023/08/29 02:41:05;;;;;;;3.53;2.53;;;;;;;-146.27;92.72;82759.84;5048358;28;20540;-69
2023/08/29 02:43:31;;;;;;;4.72;2.05;;;;;;;-146.27;92.60;82761.84;5043973;28;20029;-69
2023/08/29 02:45:57;;;;;;;4.43;2.72;;;;;;;-146.27;92.17;82725.69;5041310;28;20424;-69
2023/08/29 02:48:23;;;;;;;5.07;2.85;;;;;;;-146.27;92.17;82753.81;5037613;28;20032;-69
2023/08/29 02:50:49;;;;;;;3.75;3.00;;;;;;;-146.27;91.77;82769.91;5038661;28;20029;-69
2023/08/29 02:53:19;;;;;;;8.38;2.80;;;;;;;-146.27;92.42;82749.81;5058831;28;20035;-69
2023/08/29 02:55:45;;;;;;;3.88;2.58;;;;;;;-146.27;92.79;82777.94;5046820;28;20034;-69
2023/08/29 02:58:10;;;;;;;4.18;2.50;;;;;;;-146.27;92.66;82775.91;5048285;28;20032;-69
2023/08/29 03:00:36;;;;;;;6.78;2.70;;;;;;;-146.27;92.52;82745.78;5041659;28;20527;-69
2023/08/29 03:03:04;;;;;;;6.18;2.80;;;;;;;-146.27;92.91;82745.78;5047531;28;20374;-69
2023/08/29 03:05:30;;;;;;;4.00;3.33;;;;;;;-146.27;94.43;82806.06;5052089;28;20032;-69
2023/08/29 03:07:55;;;;;;;4.53;3.15;;;;;;;-146.27;93.19;82733.72;5038366;28;20094;-69
2023/08/29 03:10:20;;;;;;;5.00;2.97;;;;;;;-146.27;92.44;82669.44;5037354;28;20116;-69
2023/08/29 03:12:46;;;;;;;6.18;2.88;;;;;;;-146.27;93.08;82709.63;5056470;28;20067;-69
2023/08/29 03:15:11;;;;;;;4.25;2.88;;;;;;;-146.27;93.89;82777.94;5040296;28;20272;-69
2023/08/29 03:17:37;;;;;;;4.97;2.90;;;;;;;-146.27;94.09;82699.59;5047206;28;20036;-69
2023/08/29 03:20:05;;;;;;;5.07;3.03;;;;;;;-146.27;93.59;82661.41;5044314;28;20392;-69
2023/08/29 03:22:30;;;;;;;8.23;3.25;;;;;;;-146.27;93.36;82687.53;5049440;28;20036;-69
2023/08/29 03:24:55;;;;;;;8.50;2.95;;;;;;;-146.27;93.93;82705.59;5051784;28;20031;-68
2023/08/29 03:27:21;;;;;;;3.25;2.47;;;;;;;-146.27;94.30;82683.50;5039246;28;20032;-69
2023/08/29 03:29:46;;;;;;;4.10;2.80;;;;;;;-146.27;94.98;82671.47;5041886;28;20603;-69
2023/08/29 03:32:12;;;;;;;3.38;2.65;;;;;;;-146.27;93.84;82635.28;5048756;28;20040;-69
2023/08/29 03:34:38;;;;;;;3.55;2.20;;;;;;;-146.27;93.67;82635.28;5038933;28;20182;-69
2023/08/29 03:37:06;;;;;;;2.65;1.98;;;;;;;-146.27;94.07;82657.41;5058894;28;20025;-68
2023/08/29 03:39:31;;;;;;;4.00;2.72;;;;;;;-146.27;94.20;82669.44;5040817;28;20034;-68
2023/08/29 03:41:56;;;;;;;4.75;2.67;;;;;;;-146.27;94.72;82667.44;5040927;28;20035;-68
2023/08/29 03:44:23;;;;;;;3.20;2.50;;;;;;;-146.27;94.76;82629.28;5050966;28;20035;-68
2023/08/29 03:46:49;;;;;;;5.03;2.75;;;;;;;-146.27;94.47;82637.31;5048544;28;20108;-69
2023/08/29 03:49:14;;;;;;;6.07;2.58;;;;;;;-146.27;93.67;82617.22;5074498;28;20556;-68
2023/08/29 03:51:40;;;;;;;4.63;2.22;;;;;;;-146.27;93.37;82621.22;5050787;28;20076;-68
2023/08/29 03:54:05;;;;;;;5.07;3.17;;;;;;;-146.27;94.13;82629.28;5049500;28;20052;-68
2023/08/29 03:56:31;;;;;;;4.00;2.22;;;;;;;-146.27;93.24;82621.22;5036259;28;20025;-69
2023/08/29 03:58:57;;;;;;;3.40;2.20;;;;;;;-146.27;93.58;82577.03;5044847;28;20406;-68
2023/08/29 04:01:22;;;;;;;3.15;1.95;;;;;;;-146.27;92.44;82599.13;5043962;28;20031;-68
2023/08/29 04:03:47;;;;;;;4.35;2.30;;;;;;;-146.27;92.64;82601.16;5047020;28;20716;-68
2023/08/29 04:06:14;;;;;;;4.35;1.85;;;;;;;-146.27;92.55;82633.28;5040928;28;20028;-69
2023/08/29 04:08:39;;;;;;;2.42;2.05;;;;;;;-146.27;92.39;82643.31;5045650;28;20024;-69
2023/08/29 04:11:05;;;;;;;3.35;2.22;;;;;;;-146.27;92.32;82659.41;5035832;28;20021;-69
2023/08/29 04:13:32;;;;;;;11.95;4.30;;;;;;;-146.27;93.19;82685.50;5032734;28;20124;-69
2023/08/29 04:16:02;;;;;;;5.63;2.85;;;;;;;-146.27;93.06;82609.19;5039653;28;20029;-69
2023/08/29 04:18:28;;;;;;;6.55;3.40;;;;;;;-146.27;94.40;82695.56;5041355;28;20017;-68
2023/08/29 04:20:53;;;;;;;2.28;1.70;;;;;;;-146.27;93.38;82679.50;5040909;28;20033;-69
2023/08/29 04:23:19;;;;;;;2.08;1.83;;;;;;;-146.27;93.10;82729.72;5044408;28;20036;-68
2023/08/29 04:25:45;;;;;;;2.65;2.10;;;;;;;-146.27;92.68;82699.59;5039336;28;20023;-68
2023/08/29 04:28:10;;;;;;;3.17;1.88;;;;;;;-146.27;92.68;82741.78;5032117;28;20121;-68
2023/08/29 04:30:35;;;;;;;3.15;2.10;;;;;;;-146.27;93.09;82741.78;5044351;28;20079;-69
2023/08/29 04:33:01;;;;;;;2.75;1.83;;;;;;;-146.27;93.54;82729.72;5034087;28;20029;-69
2023/08/29 04:35:26;;;;;;;2.60;1.92;;;;;;;-146.27;93.16;82745.78;5046647;28;20029;-69
2023/08/29 04:37:52;;;;;;;5.00;2.28;;;;;;;-146.27;93.54;82741.78;5039115;28;20111;-68
2023/08/29 04:40:18;;;;;;;3.25;2.20;;;;;;;-146.27;94.37;82737.75;5046380;28;20024;-69
2023/08/29 04:42:44;;;;;;;4.85;2.30;;;;;;;-146.27;93.79;82749.81;5042526;28;20110;-68
2023/08/29 04:45:10;;;;;;;2.65;2.00;;;;;;;-146.27;92.83;82713.66;5044014;28;20021;-69
2023/08/29 04:47:36;;;;;;;3.28;2.00;;;;;;;-146.27;92.79;82769.91;5039048;28;20542;-69
2023/08/29 04:50:03;;;;;;;5.05;2.33;;;;;;;-146.27;92.87;82741.78;5037236;28;21579;-69
2023/08/29 04:52:29;;;;;;;3.55;2.13;;;;;;;-146.27;93.10;82761.84;5032288;28;20028;-69
2023/08/29 04:54:55;;;;;;;4.95;2.97;;;;;;;-146.27;93.71;82739.75;5040246;28;20740;-69
2023/08/29 04:57:20;;;;;;;4.70;2.15;;;;;;;-146.27;93.25;82755.84;5040526;28;20029;-68
2023/08/29 04:59:47;;;;;;;3.47;2.53;;;;;;;-146.27;93.71;82743.78;5038280;28;20037;-69
2023/08/29 05:02:12;;;;;;;7.20;2.42;;;;;;;-146.27;93.77;82755.84;5040012;28;20496;-68
2023/08/29 05:04:38;;;;;;;3.83;2.33;;;;;;;-146.27;94.37;82773.91;5038808;28;20060;-68
2023/08/29 05:07:03;;;;;;;5.10;2.72;;;;;;;-146.27;94.28;82814.09;5048740;28;20025;-68
2023/08/29 05:09:29;;;;;;;5.95;2.75;;;;;;;-146.27;93.45;82743.78;5049846;28;20028;-67
2023/08/29 05:11:54;;;;;;;4.63;2.33;;;;;;;-146.27;93.33;82767.88;5045241;28;20013;-68
2023/08/29 05:14:19;;;;;;;3.17;2.42;;;;;;;-146.27;93.41;82781.94;5039601;28;20049;-68
2023/08/29 05:16:45;;;;;;;5.32;2.53;;;;;;;-146.27;93.97;82761.84;5046949;28;20025;-68
2023/08/29 05:19:10;;;;;;;5.55;3.85;;;;;;;-146.27;94.13;82773.91;5045423;28;20028;-68
2023/08/29 05:21:35;;;;;;;4.50;2.50;;;;;;;-146.27;94.19;82761.84;5043513;28;20467;-67
2023/08/29 05:24:01;;;;;;;4.72;2.90;;;;;;;-146.27;94.24;82763.88;5030252;28;20466;-71
2023/08/29 05:26:27;;;;;;;8.07;2.90;;;;;;;-146.27;94.49;82749.81;5030090;28;20412;-70
2023/08/29 05:28:52;;;;;;;6.55;2.90;;;;;;;-146.27;94.75;82761.84;5037443;28;20314;-71
2023/08/29 05:31:18;;;;;;;3.83;2.80;;;;;;;-146.27;95.50;82731.72;5045020;28;20041;-72
2023/08/29 05:33:43;;;;;;;10.52;3.10;;;;;;;-146.27;94.96;82741.78;5039649;28;20033;-73
2023/08/29 05:36:08;;;;;;;4.00;2.80;;;;;;;-146.27;94.51;82749.81;5050995;28;20027;-72
2023/08/29 05:38:34;;;;;;;2.78;2.50;;;;;;;-146.27;94.35;82749.81;5048269;28;20433;-72
2023/08/29 05:40:59;;;;;;;4.97;3.00;;;;;;;-146.27;94.38;82761.84;5036151;28;20033;-73
2023/08/29 05:43:26;;;;;;;4.78;3.05;;;;;;;-146.27;94.47;82749.81;5061681;28;20031;-73
2023/08/29 05:45:54;;;;;;;6.50;3.10;;;;;;;-146.27;94.75;82691.53;5045477;28;20366;-73
2023/08/29 05:48:19;;;;;;;5.25;3.20;;;;;;;-146.27;94.95;82733.72;5046730;28;20469;-72
2023/08/29 05:50:44;;;;;;;4.30;3.10;;;;;;;-146.27;95.08;82737.75;5030464;28;20037;-73
2023/08/29 05:53:10;;;;;;;5.47;2.90;;;;;;;-146.27;94.98;82745.78;5042674;28;20021;-73
2023/08/29 05:55:35;;;;;;;5.95;2.97;;;;;;;-146.27;95.89;82705.59;5045299;28;20025;-72
2023/08/29 05:58:01;;;;;;;8.25;3.53;;;;;;;-146.27;95.19;82687.53;5039052;28;20341;-75
2023/08/29 06:00:26;;;;;;;4.45;3.03;;;;;;;-146.27;94.64;82677.47;5043923;28;20037;-74
2023/08/29 06:02:52;;;;;;;6.53;3.60;;;;;;;-146.27;95.09;82707.63;5042878;28;20548;-74
2023/08/29 06:05:18;;;;;;;3.60;2.83;;;;;;;-146.27;94.96;82709.63;5037771;28;20477;-73
2023/08/29 06:07:44;;;;;;;9.57;3.83;;;;;;;-146.27;95.03;82705.59;5043428;28;20481;-73
2023/08/29 06:10:09;;;;;;;6.55;3.42;;;;;;;-146.27;95.21;82695.56;5042414;28;20095;-74
2023/08/29 06:12:34;;;;;;;5.95;3.42;;;;;;;-146.27;95.24;82663.41;5044799;28;20035;-74
2023/08/29 06:15:00;;;;;;;5.25;3.55;;;;;;;-146.27;95.53;82677.47;5051416;28;20045;-73
2023/08/29 06:17:25;;;;;;;6.28;3.70;;;;;;;-146.27;95.65;82697.56;5047501;28;20382;-73
2023/08/29 06:19:51;;;;;;;4.75;3.67;;;;;;;-146.27;95.69;82649.34;5045268;28;20059;-72
2023/08/29 06:22:16;;;;;;;6.88;4.38;;;;;;;-146.27;95.93;82697.56;5039495;28;20057;-72
2023/08/29 06:24:42;;;;;;;5.25;3.92;;;;;;;-146.27;95.99;82629.28;5038162;28;20048;-74
2023/08/29 06:27:07;;;;;;;10.32;4.03;;;;;;;-146.27;96.09;82601.16;5043661;28;20025;-74
2023/08/29 06:29:33;;;;;;;6.97;4.50;;;;;;;-146.27;96.40;82601.16;5050625;28;20025;-75
2023/08/29 06:31:58;;;;;;;7.70;4.47;;;;;;;-146.27;96.52;82571.00;5042115;28;20059;-75
2023/08/29 06:34:24;;;;;;;6.88;4.00;;;;;;;-146.27;96.22;82585.06;5050454;28;20106;-74
2023/08/29 06:36:49;;;;;;;9.63;4.35;;;;;;;-146.27;96.17;82556.94;5063267;28;20028;-74
2023/08/29 06:39:15;;;;;;;12.23;3.97;;;;;;;-146.27;96.01;82468.56;5035233;28;20126;-72
2023/08/29 06:41:40;;;;;;;11.00;4.97;;;;;;;-146.27;95.77;82532.84;5035634;28;20447;-69
2023/08/29 06:44:05;;;;;;;8.82;4.15;;;;;;;-146.27;95.54;82484.63;5048317;28;20020;-69
2023/08/29 06:46:31;;;;;;;8.55;4.10;;;;;;;-146.27;95.24;82424.38;5052126;28;20757;-69
2023/08/29 06:48:56;;;;;;;5.63;3.97;;;;;;;-146.27;95.04;82444.44;5051909;28;20068;-70
2023/08/29 06:51:22;;;;;;;8.65;4.15;;;;;;;-146.27;94.90;82436.41;5052989;28;20476;-68
2023/08/29 06:53:47;;;;;;;8.18;4.50;;;;;;;-146.27;94.39;82400.25;5052162;28;20107;-71
2023/08/29 06:56:12;;;;;;;11.13;4.43;;;;;;;-146.27;94.26;82396.25;5052780;28;20024;-68
2023/08/29 06:58:38;;;;;;;4.78;3.72;;;;;;;-146.27;93.87;82400.25;5050665;28;20112;-68
2023/08/29 07:01:04;;;;;;;9.13;3.40;;;;;;;-146.27;93.88;82348.03;5052536;28;20029;-70
2023/08/29 07:03:29;;;;;;;8.55;3.80;;;;;;;-146.27;93.38;82331.97;5036927;28;20033;-69
2023/08/29 07:05:54;;;;;;;8.32;4.03;;;;;;;-146.27;93.08;82342.00;5032497;28;20032;-70
2023/08/29 07:08:20;;;;;;;9.68;4.00;;;;;;;-146.27;92.66;82295.81;5047293;28;20036;-70
2023/08/29 07:10:45;;;;;;;4.40;2.90;;;;;;;-146.27;92.49;82265.66;5050209;28;20033;-70
2023/08/29 07:13:11;;;;;;;7.53;4.03;;;;;;;-146.27;92.13;82247.59;5043523;28;20111;-70
2023/08/29 07:15:36;;;;;;;8.38;4.40;;;;;;;-146.27;91.42;82267.69;5047535;28;20026;-70
2023/08/29 07:18:05;;;;;;;8.55;3.72;;;;;;;-146.27;91.57;82231.53;5032488;28;20025;-70
2023/08/29 07:20:30;;;;;;;7.65;3.50;;;;;;;-146.27;90.79;82199.38;5043377;28;20033;-69
2023/08/29 07:22:56;;;;;;;6.85;3.65;;;;;;;-146.27;90.51;82211.44;5050798;28;20031;-70
2023/08/29 07:25:35;;;;;;;7.57;3.38;;;;;;;-146.27;90.62;82100.97;5049879;28;20029;-69
2023/08/29 07:28:01;;;;;;;6.68;3.53;;;;;;;-146.27;90.20;82088.91;5041995;28;20022;-68
2023/08/29 07:30:26;;;;;;;5.75;3.85;;;;;;;-146.27;90.18;82070.81;5039624;28;20025;-70
2023/08/29 07:32:51;;;;;;;5.05;3.85;;;;;;;-146.27;88.51;82046.72;5051801;28;20090;-69
2023/08/29 07:35:17;;;;;;;9.50;3.50;;;;;;;-146.27;86.78;82048.72;5047308;28;20067;-69
2023/08/29 07:37:42;;;;;;;7.68;3.30;;;;;;;-146.27;86.22;82042.69;5050057;28;20094;-69
2023/08/29 07:40:08;;;;;;;5.63;3.22;;;;;;;-146.27;86.40;81974.41;5051131;28;20021;-69
2023/08/29 07:42:34;;;;;;;5.45;3.33;;;;;;;-146.27;85.34;81972.41;5052060;28;20189;-69
2023/08/29 07:44:59;;;;;;;5.32;3.10;;;;;;;-146.27;84.53;81930.22;5049461;28;20033;-70
2023/08/29 07:47:25;;;;;;;4.20;3.03;;;;;;;-146.27;83.78;81994.50;5051549;28;20056;-74
2023/08/29 07:49:51;;;;;;;6.15;3.67;;;;;;;-146.27;84.06;81946.28;5051239;28;20272;-69
2023/08/29 07:52:16;;;;;;;7.07;2.85;;;;;;;-146.27;84.23;81914.16;5050874;28;20029;-70
2023/08/29 07:54:42;;;;;;;4.78;3.17;;;;;;;-146.27;83.97;81904.13;5050355;28;20029;-70
2023/08/29 07:57:07;;;;;;;6.63;3.45;;;;;;;-146.27;83.68;81924.19;5035567;28;20021;-69
2023/08/29 07:59:33;;;;;;;5.40;3.45;;;;;;;-146.27;83.40;81944.28;5050311;28;20108;-69
2023/08/29 08:01:58;;;;;;;6.70;3.83;;;;;;;-146.27;83.24;81920.19;5050757;28;20060;-69
2023/08/29 08:04:24;;;;;;;5.57;3.50;;;;;;;-146.27;83.36;81882.00;5047576;28;20050;-69
2023/08/29 08:06:49;;;;;;;5.93;3.42;;;;;;;-146.27;83.40;81859.94;5044462;28;20487;-69
2023/08/29 08:09:15;;;;;;;7.75;3.25;;;;;;;-146.27;83.17;81805.69;5050765;28;20029;-70
2023/08/29 08:11:41;;;;;;;7.03;3.00;;;;;;;-146.27;82.67;81813.72;5049633;28;20033;-69
2023/08/29 08:14:06;;;;;;;4.68;2.80;;;;;;;-146.27;81.43;81807.69;5046291;28;20052;-69
2023/08/29 08:16:31;;;;;;;6.28;2.60;;;;;;;-146.27;81.22;81729.38;5048012;28;20120;-69
2023/08/29 08:18:57;;;;;;;2.90;2.55;;;;;;;-146.27;80.45;81781.59;5039805;28;20115;-69
2023/08/29 08:21:22;;;;;;;3.65;2.50;;;;;;;-146.27;81.02;81769.53;5052176;28;20504;-70
2023/08/29 08:23:48;;;;;;;5.63;3.05;;;;;;;-146.27;80.67;81747.44;5052525;28;20484;-70
2023/08/29 08:26:13;;;;;;;4.43;2.90;;;;;;;-146.27;79.87;81733.38;5033735;28;20509;-70
2023/08/29 08:28:39;;;;;;;9.90;3.35;;;;;;;-146.27;79.41;81765.53;5036381;28;20103;-69
2023/08/29 08:31:06;;;;;;;4.95;3.58;;;;;;;-146.27;79.67;81811.72;5057803;28;20027;-68
2023/08/29 08:33:32;;;;;;;7.03;3.30;;;;;;;-146.27;79.52;81741.41;5051009;28;20029;-69
2023/08/29 08:35:57;;;;;;;5.18;3.13;;;;;;;-146.27;79.97;81765.53;5048651;28;20029;-69
2023/08/29 08:38:22;;;;;;;5.65;4.20;;;;;;;-146.27;80.32;81783.59;5049066;28;20017;-68
2023/08/29 08:40:48;;;;;;;8.13;4.97;;;;;;;-146.27;80.07;81783.59;5043925;28;20033;-69
2023/08/29 08:43:15;;;;;;;6.35;4.75;;;;;;;-146.27;80.15;81761.50;5043261;28;20093;-70
2023/08/29 08:45:42;;;;;;;4.97;4.20;;;;;;;-146.27;79.83;81779.59;5045388;28;20025;-68
2023/08/29 08:48:08;;;;;;;5.28;4.13;;;;;;;-146.27;79.72;81709.28;5039965;28;20056;-69
2023/08/29 08:50:34;;;;;;;8.55;4.70;;;;;;;-146.27;80.47;81677.16;5031693;28;20561;-69
2023/08/29 08:53:02;;;;;;;8.02;3.80;;;;;;;-146.27;78.68;81651.03;5040028;28;20103;-68
2023/08/29 08:55:28;;;;;;;5.25;4.22;;;;;;;-146.27;78.68;81649.03;5038129;28;20028;-69
2023/08/29 08:57:53;;;;;;;4.50;3.30;;;;;;;-146.27;76.83;81614.88;5049679;28;20033;-67
2023/08/29 09:00:20;;;;;;;6.22;2.60;;;;;;;-146.27;76.68;81544.59;5052560;28;20032;-68
2023/08/29 09:02:45;;;;;;;4.55;3.03;;;;;;;-146.27;76.33;81530.53;5047064;28;20060;-69
2023/08/29 09:05:11;;;;;;;9.80;3.00;;;;;;;-146.27;76.46;81440.16;5040327;28;20406;-69
2023/08/29 09:07:38;;;;;;;3.72;2.28;;;;;;;-146.27;76.03;81414.06;5044123;28;20465;-69
2023/08/29 09:10:12;;;;;;;8.07;2.17;;;;;;;-146.27;76.74;81335.72;5049300;28;20572;-69
2023/08/29 09:12:47;;;;;;;4.07;1.67;;;;;;;-146.27;71.43;81299.59;5048253;28;20033;-69
2023/08/29 09:15:16;;;;;;;1.98;1.55;;;;;;;-146.27;70.88;81303.59;5047533;28;20044;-69
2023/08/29 09:17:47;;;;;;;5.13;1.52;;;;;;;-146.27;69.21;81263.44;5049444;28;20481;-69
2023/08/29 09:20:13;;;;;;;1.30;1.20;;;;;;;-146.27;69.59;81183.09;5036329;28;20177;-68
2023/08/29 09:22:42;;;;;;;2.33;1.33;;;;;;;-146.27;69.68;81207.19;5037418;28;20520;-69
2023/08/29 09:25:08;;;;;;;2.75;1.55;;;;;;;-146.27;67.24;81223.25;5047789;28;20025;-68
2023/08/29 09:27:40;;;;;;;2.95;1.60;;;;;;;-146.27;66.91;81257.41;5037614;28;20025;-68
2023/08/29 09:30:13;;;;;;;2.20;1.30;;;;;;;-146.27;67.61;81243.34;5042278;28;20086;-68
2023/08/29 09:32:47;;;;;;;2.20;1.60;;;;;;;-146.27;65.48;81295.56;5040893;28;20064;-69
2023/08/29 09:35:14;;;;;;;3.03;1.30;;;;;;;-146.27;66.83;81283.50;5053870;28;20155;-68
2023/08/29 09:37:45;;;;;;;3.38;1.50;;;;;;;-146.27;67.25;81295.56;5039938;28;20030;-69
2023/08/29 09:40:15;;;;;;;2.90;1.33;;;;;;;-146.27;65.98;81307.63;5038633;28;20033;-69
2023/08/29 09:42:40;;;;;;;1.77;1.17;;;;;;;-146.27;65.92;81303.59;5042274;28;20488;-68
2023/08/29 09:45:09;;;;;;;1.20;1.10;;;;;;;-146.27;65.59;81319.66;5044204;28;20043;-67
2023/08/29 09:47:35;;;;;;;1.45;1.15;;;;;;;-146.27;65.56;81349.78;5045321;28;20033;-67
2023/08/29 09:50:00;;;;;;;2.35;1.20;;;;;;;-146.27;66.75;81331.72;5030089;28;20024;-67
2023/08/29 09:52:27;;;;;;;2.05;1.13;;;;;;;-146.27;66.74;81265.44;5040470;28;20477;-68
2023/08/29 09:54:52;;;;;;;3.65;1.00;;;;;;;-146.27;64.44;81249.38;5029599;28;20033;-68
2023/08/29 09:57:22;;;;;;;1.63;1.27;;;;;;;-146.27;62.44;81223.25;5029262;28;20033;-66
2023/08/29 09:59:51;;;;;;;1.48;1.13;;;;;;;-146.27;63.46;81136.91;5031152;28;20164;-67
2023/08/29 10:02:18;;;;;;;3.00;1.95;;;;;;;-146.27;62.34;81118.84;5033733;28;20538;-68
2023/08/29 10:04:54;;;;;;;3.88;1.98;;;;;;;-146.27;63.66;81078.69;5028090;28;20029;-68
2023/08/29 10:07:25;;;;;;;3.10;2.00;;;;;;;-146.27;62.52;81032.50;5025494;28;20032;-68
2023/08/29 10:09:51;;;;;;;1.90;1.80;;;;;;;-146.27;62.45;80978.28;5026868;28;20028;-70
2023/08/29 10:12:18;;;;;;;2.38;1.70;;;;;;;-146.27;62.93;80897.94;5032765;28;20106;-68
2023/08/29 10:14:44;;;;;;;4.00;1.95;;;;;;;-146.27;61.50;80942.13;5053225;28;20041;-69
2023/08/29 10:17:12;;;;;;;2.03;1.50;;;;;;;-146.27;59.41;80954.19;5034939;28;20048;-69
2023/08/29 10:19:38;;;;;;;2.75;1.60;;;;;;;-146.27;58.62;80903.97;5044993;28;20154;-69
2023/08/29 10:22:07;;;;;;;1.63;1.08;;;;;;;-146.27;58.70;80974.25;5049258;28;20113;-69
2023/08/29 10:24:36;;;;;;;2.65;0.85;;;;;;;-146.27;61.20;80942.13;5033719;28;20056;-68
2023/08/29 10:27:05;;;;;;;1.55;0.80;;;;;;;-146.27;59.11;81018.44;5035338;28;20186;-70
2023/08/29 10:29:31;;;;;;;0.68;0.60;;;;;;;-146.27;57.34;80992.31;5041861;28;20032;-70
2023/08/29 10:31:59;;;;;;;0.98;0.73;;;;;;;-146.27;56.32;81002.38;5041247;28;20036;-71
2023/08/29 10:34:27;;;;;;;4.97;1.00;;;;;;;-146.27;55.87;81080.69;5040808;28;20071;-71
2023/08/29 10:36:53;;;;;;;0.90;0.60;;;;;;;-146.27;55.86;81066.63;5032484;28;20045;-71
2023/08/29 10:39:19;;;;;;;0.65;0.65;;;;;;;-146.27;55.67;81072.66;5040463;28;20392;-70
2023/08/29 10:41:51;;;;;;;2.03;0.70;;;;;;;-146.27;56.77;81010.41;5039536;28;20060;-71
2023/08/29 10:44:35;;;;;;;4.55;0.70;;;;;;;-146.27;56.35;80934.09;5045813;28;20036;-70
2023/08/29 10:47:23;;;;;;;1.85;1.15;;;;;;;-146.27;53.28;80954.19;5050762;28;20112;-70
2023/08/29 10:49:59;;;;;;;3.33;0.75;;;;;;;-146.27;53.79;81018.44;5038751;28;20033;-70
2023/08/29 10:52:36;;;;;;;2.55;1.02;;;;;;;-146.27;53.86;81090.72;5032532;28;20029;-70
2023/08/29 10:55:03;;;;;;;1.85;1.05;;;;;;;-146.27;55.91;81094.75;5032106;28;20548;-71
2023/08/29 10:57:30;;;;;;;1.10;1.00;;;;;;;-146.27;57.59;81134.91;5040719;28;20521;-71
2023/08/29 10:59:56;;;;;;;1.45;1.00;;;;;;;-146.27;57.60;81128.88;5033142;28;20026;-71
2023/08/29 11:02:22;;;;;;;3.00;0.88;;;;;;;-146.27;57.27;81062.59;5032424;28;20033;-71
2023/08/29 11:04:50;;;;;;;1.38;1.10;;;;;;;-146.27;55.96;81062.59;5032390;28;20026;-71
2023/08/29 11:07:25;;;;;;;1.75;1.08;;;;;;;-146.27;54.56;81144.94;5040938;28;20048;-70
2023/08/29 11:10:22;;;;;;;2.30;1.05;;;;;;;-146.27;55.83;81038.50;5050866;28;20035;-71
2023/08/29 11:13:11;;;;;;;2.35;1.10;;;;;;;-146.27;57.55;81106.78;5030140;28;20029;-72
2023/08/29 11:15:48;;;;;;;3.40;1.50;;;;;;;-146.27;57.46;81068.63;5031690;28;20064;-74